sensor_id;sensor_type;location;lat;lon;timestamp;P1;durP1;ratioP1;P2;durP2;ratioP2
19929;SDS011;10127;47.780;9.606;2023-07-13T00:01:43;14.80;;;13.65;;
19929;SDS011;10127;47.780;9.606;2023-07-13T00:04:08;18.33;;;17.15;;
19929;SDS011;10127;47.780;9.606;2023-07-13T00:06:34;17.58;;;16.30;;
19929;SDS011;10127;47.780;9.606;2023-07-13T00:09:00;12.63;;;11.30;;
19929;SDS011;10127;47.780;9.606;2023-07-13T00:11:26;19.70;;;18.35;;
19929;SDS011;10127;47.780;9.606;2023-07-13T00:13:52;11.48;;;10.63;;
19929;SDS011;10127;47.780;9.606;2023-07-13T00:16:18;9.63;;;7.90;;
19929;SDS011;10127;47.780;9.606;2023-07-13T00:18:44;12.07;;;9.20;;
19929;SDS011;10127;47.780;9.606;2023-07-13T00:21:10;7.45;;;6.72;;
19929;SDS011;10127;47.780;9.606;2023-07-13T00:23:37;11.88;;;10.95;;
19929;SDS011;10127;47.780;9.606;2023-07-13T00:26:05;9.25;;;8.05;;
19929;SDS011;10127;47.780;9.606;2023-07-13T00:28:32;10.68;;;8.65;;
19929;SDS011;10127;47.780;9.606;2023-07-13T00:30:58;10.10;;;9.15;;
19929;SDS011;10127;47.780;9.606;2023-07-13T00:33:24;15.85;;;14.25;;
19929;SDS011;10127;47.780;9.606;2023-07-13T00:35:50;10.82;;;8.73;;
19929;SDS011;10127;47.780;9.606;2023-07-13T00:38:16;14.55;;;13.43;;
19929;SDS011;10127;47.780;9.606;2023-07-13T00:40:42;16.83;;;15.38;;
19929;SDS011;10127;47.780;9.606;2023-07-13T00:43:13;13.68;;;8.65;;
19929;SDS011;10127;47.780;9.606;2023-07-13T00:48:09;13.27;;;11.88;;
19929;SDS011;10127;47.780;9.606;2023-07-13T00:50:46;11.82;;;8.77;;
19929;SDS011;10127;47.780;9.606;2023-07-13T00:53:16;11.85;;;10.65;;
19929;SDS011;10127;47.780;9.606;2023-07-13T00:55:43;11.15;;;10.05;;
19929;SDS011;10127;47.780;9.606;2023-07-13T00:58:09;12.93;;;11.00;;
19929;SDS011;10127;47.780;9.606;2023-07-13T01:00:35;17.83;;;11.30;;
19929;SDS011;10127;47.780;9.606;2023-07-13T01:03:03;13.13;;;10.25;;
19929;SDS011;10127;47.780;9.606;2023-07-13T01:05:29;14.13;;;11.88;;
19929;SDS011;10127;47.780;9.606;2023-07-13T01:07:58;12.50;;;10.25;;
19929;SDS011;10127;47.780;9.606;2023-07-13T01:10:25;16.13;;;14.50;;
19929;SDS011;10127;47.780;9.606;2023-07-13T01:12:51;15.55;;;13.98;;
19929;SDS011;10127;47.780;9.606;2023-07-13T01:18:03;18.05;;;11.68;;
19929;SDS011;10127;47.780;9.606;2023-07-13T01:20:30;11.63;;;10.50;;
19929;SDS011;10127;47.780;9.606;2023-07-13T01:23:00;16.60;;;14.88;;
19929;SDS011;10127;47.780;9.606;2023-07-13T01:25:28;14.75;;;11.32;;
19929;SDS011;10127;47.780;9.606;2023-07-13T01:27:54;15.18;;;13.80;;
19929;SDS011;10127;47.780;9.606;2023-07-13T01:30:20;14.02;;;11.85;;
19929;SDS011;10127;47.780;9.606;2023-07-13T01:32:45;17.17;;;15.85;;
19929;SDS011;10127;47.780;9.606;2023-07-13T01:35:11;16.27;;;14.68;;
19929;SDS011;10127;47.780;9.606;2023-07-13T01:37:37;10.13;;;8.75;;
19929;SDS011;10127;47.780;9.606;2023-07-13T01:40:03;15.80;;;9.07;;
19929;SDS011;10127;47.780;9.606;2023-07-13T01:42:30;10.77;;;9.23;;
19929;SDS011;10127;47.780;9.606;2023-07-13T01:44:55;17.40;;;15.75;;
19929;SDS011;10127;47.780;9.606;2023-07-13T01:47:22;11.30;;;10.20;;
19929;SDS011;10127;47.780;9.606;2023-07-13T01:49:48;10.45;;;8.05;;
19929;SDS011;10127;47.780;9.606;2023-07-13T01:52:15;9.98;;;8.80;;
19929;SDS011;10127;47.780;9.606;2023-07-13T01:54:41;9.35;;;8.38;;
19929;SDS011;10127;47.780;9.606;2023-07-13T01:57:06;8.18;;;7.38;;
19929;SDS011;10127;47.780;9.606;2023-07-13T01:59:32;9.80;;;7.60;;
19929;SDS011;10127;47.780;9.606;2023-07-13T02:01:58;15.27;;;9.85;;
19929;SDS011;10127;47.780;9.606;2023-07-13T02:04:24;16.58;;;10.20;;
19929;SDS011;10127;47.780;9.606;2023-07-13T02:06:49;10.57;;;8.35;;
19929;SDS011;10127;47.780;9.606;2023-07-13T02:09:15;10.18;;;9.18;;
19929;SDS011;10127;47.780;9.606;2023-07-13T02:11:40;11.02;;;8.52;;
19929;SDS011;10127;47.780;9.606;2023-07-13T02:14:06;15.63;;;10.80;;
19929;SDS011;10127;47.780;9.606;2023-07-13T02:16:31;13.50;;;7.88;;
19929;SDS011;10127;47.780;9.606;2023-07-13T02:18:57;19.70;;;9.88;;
19929;SDS011;10127;47.780;9.606;2023-07-13T02:21:23;14.05;;;10.80;;
19929;SDS011;10127;47.780;9.606;2023-07-13T02:23:49;14.55;;;13.15;;
19929;SDS011;10127;47.780;9.606;2023-07-13T02:26:15;18.75;;;17.05;;
19929;SDS011;10127;47.780;9.606;2023-07-13T02:28:41;21.35;;;19.33;;
19929;SDS011;10127;47.780;9.606;2023-07-13T02:31:10;42.75;;;39.03;;
19929;SDS011;10127;47.780;9.606;2023-07-13T02:33:38;164.00;;;104.80;;
19929;SDS011;10127;47.780;9.606;2023-07-13T02:36:04;415.00;;;138.40;;
19929;SDS011;10127;47.780;9.606;2023-07-13T02:38:30;500.08;;;171.43;;
19929;SDS011;10127;47.780;9.606;2023-07-13T02:41:01;499.02;;;134.65;;
19929;SDS011;10127;47.780;9.606;2023-07-13T02:43:27;390.95;;;111.43;;
19929;SDS011;10127;47.780;9.606;2023-07-13T02:45:53;376.67;;;100.80;;
19929;SDS011;10127;47.780;9.606;2023-07-13T02:48:19;61.58;;;50.85;;
19929;SDS011;10127;47.780;9.606;2023-07-13T02:50:44;19.08;;;17.23;;
19929;SDS011;10127;47.780;9.606;2023-07-13T02:53:10;51.38;;;46.13;;
19929;SDS011;10127;47.780;9.606;2023-07-13T02:55:36;108.70;;;84.40;;
19929;SDS011;10127;47.780;9.606;2023-07-13T02:58:01;392.15;;;122.40;;
19929;SDS011;10127;47.780;9.606;2023-07-13T03:00:27;394.05;;;116.05;;
19929;SDS011;10127;47.780;9.606;2023-07-13T03:02:53;387.48;;;124.82;;
19929;SDS011;10127;47.780;9.606;2023-07-13T03:05:23;435.80;;;132.27;;
19929;SDS011;10127;47.780;9.606;2023-07-13T03:07:49;511.38;;;186.93;;
19929;SDS011;10127;47.780;9.606;2023-07-13T03:10:15;749.88;;;244.05;;
19929;SDS011;10127;47.780;9.606;2023-07-13T03:12:41;924.60;;;405.92;;
19929;SDS011;10127;47.780;9.606;2023-07-13T03:15:07;912.28;;;306.50;;
19929;SDS011;10127;47.780;9.606;2023-07-13T03:17:33;1999.90;;;884.92;;
19929;SDS011;10127;47.780;9.606;2023-07-13T03:19:58;1999.90;;;719.13;;
19929;SDS011;10127;47.780;9.606;2023-07-13T03:22:24;1742.40;;;642.10;;
19929;SDS011;10127;47.780;9.606;2023-07-13T03:24:49;1089.75;;;432.38;;
19929;SDS011;10127;47.780;9.606;2023-07-13T03:27:16;1365.63;;;590.08;;
19929;SDS011;10127;47.780;9.606;2023-07-13T03:29:42;870.42;;;395.38;;
19929;SDS011;10127;47.780;9.606;2023-07-13T03:32:08;674.63;;;285.98;;
19929;SDS011;10127;47.780;9.606;2023-07-13T03:34:34;888.22;;;313.73;;
19929;SDS011;10127;47.780;9.606;2023-07-13T03:36:59;1999.90;;;844.05;;
19929;SDS011;10127;47.780;9.606;2023-07-13T03:39:25;1203.18;;;498.70;;
19929;SDS011;10127;47.780;9.606;2023-07-13T03:41:51;728.50;;;393.17;;
19929;SDS011;10127;47.780;9.606;2023-07-13T03:44:17;681.80;;;287.17;;
19929;SDS011;10127;47.780;9.606;2023-07-13T03:46:43;555.05;;;257.70;;
19929;SDS011;10127;47.780;9.606;2023-07-13T03:49:09;1123.95;;;479.90;;
19929;SDS011;10127;47.780;9.606;2023-07-13T03:51:35;1453.95;;;711.08;;
19929;SDS011;10127;47.780;9.606;2023-07-13T03:54:01;1395.43;;;667.47;;
19929;SDS011;10127;47.780;9.606;2023-07-13T03:56:27;1999.90;;;999.90;;
19929;SDS011;10127;47.780;9.606;2023-07-13T03:58:53;1999.90;;;569.85;;
19929;SDS011;10127;47.780;9.606;2023-07-13T04:01:20;1759.80;;;653.40;;
19929;SDS011;10127;47.780;9.606;2023-07-13T04:03:47;1999.90;;;999.90;;
19929;SDS011;10127;47.780;9.606;2023-07-13T04:06:15;1999.90;;;999.90;;
19929;SDS011;10127;47.780;9.606;2023-07-13T04:08:47;1905.50;;;852.28;;
19929;SDS011;10127;47.780;9.606;2023-07-13T04:11:15;1999.90;;;999.90;;
19929;SDS011;10127;47.780;9.606;2023-07-13T04:13:40;1994.05;;;509.17;;
19929;SDS011;10127;47.780;9.606;2023-07-13T04:16:06;1319.75;;;318.02;;
19929;SDS011;10127;47.780;9.606;2023-07-13T04:18:31;1416.80;;;285.67;;
19929;SDS011;10127;47.780;9.606;2023-07-13T04:20:57;1999.90;;;999.90;;
19929;SDS011;10127;47.780;9.606;2023-07-13T04:23:23;1999.90;;;701.78;;
19929;SDS011;10127;47.780;9.606;2023-07-13T04:25:49;1999.90;;;999.90;;
19929;SDS011;10127;47.780;9.606;2023-07-13T04:28:23;1999.90;;;999.90;;
19929;SDS011;10127;47.780;9.606;2023-07-13T04:30:56;1999.90;;;999.90;;
19929;SDS011;10127;47.780;9.606;2023-07-13T04:33:22;1999.90;;;999.90;;
19929;SDS011;10127;47.780;9.606;2023-07-13T04:35:52;1999.90;;;999.90;;
19929;SDS011;10127;47.780;9.606;2023-07-13T04:38:21;1999.90;;;999.90;;
19929;SDS011;10127;47.780;9.606;2023-07-13T04:40:47;1999.90;;;999.90;;
19929;SDS011;10127;47.780;9.606;2023-07-13T04:43:13;1999.90;;;999.90;;
19929;SDS011;10127;47.780;9.606;2023-07-13T04:45:39;1999.90;;;999.90;;
19929;SDS011;10127;47.780;9.606;2023-07-13T04:48:04;1999.90;;;999.90;;
19929;SDS011;10127;47.780;9.606;2023-07-13T04:50:30;1999.90;;;999.90;;
19929;SDS011;10127;47.780;9.606;2023-07-13T04:52:56;1999.90;;;999.90;;
19929;SDS011;10127;47.780;9.606;2023-07-13T04:55:22;1999.90;;;999.90;;
19929;SDS011;10127;47.780;9.606;2023-07-13T04:57:47;1999.90;;;999.90;;
19929;SDS011;10127;47.780;9.606;2023-07-13T05:00:13;1999.90;;;999.90;;
19929;SDS011;10127;47.780;9.606;2023-07-13T05:02:41;1999.90;;;999.90;;
19929;SDS011;10127;47.780;9.606;2023-07-13T05:05:09;1999.90;;;999.90;;
19929;SDS011;10127;47.780;9.606;2023-07-13T05:07:35;1999.90;;;999.90;;
19929;SDS011;10127;47.780;9.606;2023-07-13T05:10:01;1999.90;;;999.90;;
19929;SDS011;10127;47.780;9.606;2023-07-13T05:12:28;1999.90;;;999.90;;
19929;SDS011;10127;47.780;9.606;2023-07-13T05:14:53;1999.90;;;999.90;;
19929;SDS011;10127;47.780;9.606;2023-07-13T05:17:19;1999.90;;;999.90;;
19929;SDS011;10127;47.780;9.606;2023-07-13T05:19:51;1999.90;;;999.90;;
19929;SDS011;10127;47.780;9.606;2023-07-13T05:22:17;1999.90;;;999.90;;
19929;SDS011;10127;47.780;9.606;2023-07-13T05:24:43;1999.90;;;999.90;;
19929;SDS011;10127;47.780;9.606;2023-07-13T05:27:08;1999.90;;;999.90;;
19929;SDS011;10127;47.780;9.606;2023-07-13T05:29:34;1702.53;;;839.63;;
19929;SDS011;10127;47.780;9.606;2023-07-13T05:31:59;1078.18;;;525.55;;
19929;SDS011;10127;47.780;9.606;2023-07-13T05:34:25;1090.50;;;649.15;;
19929;SDS011;10127;47.780;9.606;2023-07-13T05:36:51;1434.28;;;813.67;;
19929;SDS011;10127;47.780;9.606;2023-07-13T05:39:17;1593.15;;;958.30;;
19929;SDS011;10127;47.780;9.606;2023-07-13T05:41:43;1248.10;;;962.90;;
19929;SDS011;10127;47.780;9.606;2023-07-13T05:44:09;1029.93;;;915.50;;
19929;SDS011;10127;47.780;9.606;2023-07-13T05:46:42;755.78;;;685.63;;
19929;SDS011;10127;47.780;9.606;2023-07-13T05:49:07;879.25;;;792.45;;
19929;SDS011;10127;47.780;9.606;2023-07-13T05:51:33;930.80;;;832.80;;
19929;SDS011;10127;47.780;9.606;2023-07-13T05:53:58;945.15;;;846.83;;
19929;SDS011;10127;47.780;9.606;2023-07-13T05:56:24;1023.00;;;917.63;;
19929;SDS011;10127;47.780;9.606;2023-07-13T05:58:51;1041.00;;;935.00;;
19929;SDS011;10127;47.780;9.606;2023-07-13T06:01:17;923.05;;;840.90;;
19929;SDS011;10127;47.780;9.606;2023-07-13T06:03:45;829.03;;;761.60;;
19929;SDS011;10127;47.780;9.606;2023-07-13T06:06:11;621.30;;;578.88;;
19929;SDS011;10127;47.780;9.606;2023-07-13T06:08:36;661.38;;;615.65;;
19929;SDS011;10127;47.780;9.606;2023-07-13T06:11:07;638.10;;;594.70;;
19929;SDS011;10127;47.780;9.606;2023-07-13T06:13:37;578.85;;;540.15;;
19929;SDS011;10127;47.780;9.606;2023-07-13T06:16:03;455.80;;;426.42;;
19929;SDS011;10127;47.780;9.606;2023-07-13T06:18:29;378.80;;;355.02;;
19929;SDS011;10127;47.780;9.606;2023-07-13T06:20:56;321.23;;;300.63;;
19929;SDS011;10127;47.780;9.606;2023-07-13T06:23:22;295.42;;;278.58;;
19929;SDS011;10127;47.780;9.606;2023-07-13T06:25:48;227.38;;;214.18;;
19929;SDS011;10127;47.780;9.606;2023-07-13T06:28:14;300.45;;;282.50;;
19929;SDS011;10127;47.780;9.606;2023-07-13T06:30:39;237.85;;;224.05;;
19929;SDS011;10127;47.780;9.606;2023-07-13T06:33:05;104.82;;;98.07;;
19929;SDS011;10127;47.780;9.606;2023-07-13T06:35:38;126.95;;;119.65;;
19929;SDS011;10127;47.780;9.606;2023-07-13T06:38:03;108.60;;;102.32;;
19929;SDS011;10127;47.780;9.606;2023-07-13T06:40:29;85.05;;;80.15;;
19929;SDS011;10127;47.780;9.606;2023-07-13T06:42:55;66.82;;;62.42;;
19929;SDS011;10127;47.780;9.606;2023-07-13T06:45:21;59.20;;;55.75;;
19929;SDS011;10127;47.780;9.606;2023-07-13T06:47:47;62.55;;;58.67;;
19929;SDS011;10127;47.780;9.606;2023-07-13T06:50:12;68.88;;;64.53;;
19929;SDS011;10127;47.780;9.606;2023-07-13T06:52:38;63.03;;;59.22;;
19929;SDS011;10127;47.780;9.606;2023-07-13T06:55:04;100.93;;;95.43;;
19929;SDS011;10127;47.780;9.606;2023-07-13T06:57:30;120.22;;;113.75;;
19929;SDS011;10127;47.780;9.606;2023-07-13T06:59:55;142.57;;;134.85;;
19929;SDS011;10127;47.780;9.606;2023-07-13T07:02:21;144.57;;;136.13;;
19929;SDS011;10127;47.780;9.606;2023-07-13T07:04:46;329.30;;;309.92;;
19929;SDS011;10127;47.780;9.606;2023-07-13T07:07:12;267.73;;;251.90;;
19929;SDS011;10127;47.780;9.606;2023-07-13T07:09:37;272.67;;;257.70;;
19929;SDS011;10127;47.780;9.606;2023-07-13T07:12:03;311.92;;;288.17;;
19929;SDS011;10127;47.780;9.606;2023-07-13T07:14:29;715.53;;;657.08;;
19929;SDS011;10127;47.780;9.606;2023-07-13T07:16:55;379.35;;;354.77;;
19929;SDS011;10127;47.780;9.606;2023-07-13T07:19:21;905.13;;;830.05;;
19929;SDS011;10127;47.780;9.606;2023-07-13T07:21:47;901.40;;;827.70;;
19929;SDS011;10127;47.780;9.606;2023-07-13T07:24:14;186.68;;;175.05;;
19929;SDS011;10127;47.780;9.606;2023-07-13T07:26:40;704.42;;;653.50;;
19929;SDS011;10127;47.780;9.606;2023-07-13T07:29:06;758.30;;;700.92;;
19929;SDS011;10127;47.780;9.606;2023-07-13T07:31:32;709.08;;;657.72;;
19929;SDS011;10127;47.780;9.606;2023-07-13T07:33:57;773.08;;;714.30;;
19929;SDS011;10127;47.780;9.606;2023-07-13T07:36:23;821.95;;;758.75;;
19929;SDS011;10127;47.780;9.606;2023-07-13T07:38:48;817.47;;;755.58;;
19929;SDS011;10127;47.780;9.606;2023-07-13T07:41:14;809.95;;;748.78;;
19929;SDS011;10127;47.780;9.606;2023-07-13T07:43:40;792.25;;;733.67;;
19929;SDS011;10127;47.780;9.606;2023-07-13T07:46:05;630.88;;;589.15;;
19929;SDS011;10127;47.780;9.606;2023-07-13T07:48:31;598.65;;;560.20;;
19929;SDS011;10127;47.780;9.606;2023-07-13T07:50:57;740.55;;;687.47;;
19929;SDS011;10127;47.780;9.606;2023-07-13T07:53:23;684.80;;;637.35;;
19929;SDS011;10127;47.780;9.606;2023-07-13T07:55:49;756.38;;;701.40;;
19929;SDS011;10127;47.780;9.606;2023-07-13T07:58:14;761.72;;;705.47;;
19929;SDS011;10127;47.780;9.606;2023-07-13T08:00:40;727.13;;;674.65;;
19929;SDS011;10127;47.780;9.606;2023-07-13T08:03:06;829.30;;;764.92;;
19929;SDS011;10127;47.780;9.606;2023-07-13T08:05:32;854.10;;;785.30;;
19929;SDS011;10127;47.780;9.606;2023-07-13T08:08:01;872.60;;;800.83;;
19929;SDS011;10127;47.780;9.606;2023-07-13T08:10:26;954.15;;;867.80;;
19929;SDS011;10127;47.780;9.606;2023-07-13T08:12:52;907.58;;;829.58;;
19929;SDS011;10127;47.780;9.606;2023-07-13T08:15:17;1014.95;;;909.58;;
19929;SDS011;10127;47.780;9.606;2023-07-13T08:17:45;905.05;;;827.15;;
19929;SDS011;10127;47.780;9.606;2023-07-13T08:20:12;917.25;;;838.88;;
19929;SDS011;10127;47.780;9.606;2023-07-13T08:22:38;916.03;;;839.28;;
19929;SDS011;10127;47.780;9.606;2023-07-13T08:25:04;924.97;;;847.55;;
19929;SDS011;10127;47.780;9.606;2023-07-13T08:27:29;938.80;;;859.38;;
19929;SDS011;10127;47.780;9.606;2023-07-13T08:29:55;917.05;;;842.33;;
19929;SDS011;10127;47.780;9.606;2023-07-13T08:32:21;920.05;;;843.40;;
19929;SDS011;10127;47.780;9.606;2023-07-13T08:34:47;903.08;;;829.38;;
19929;SDS011;10127;47.780;9.606;2023-07-13T08:37:14;741.90;;;687.72;;
19929;SDS011;10127;47.780;9.606;2023-07-13T08:39:40;860.88;;;791.10;;
19929;SDS011;10127;47.780;9.606;2023-07-13T08:47:31;216.57;;;204.05;;
19929;SDS011;10127;47.780;9.606;2023-07-13T08:50:00;480.73;;;447.55;;
19929;SDS011;10127;47.780;9.606;2023-07-13T08:55:02;562.63;;;526.65;;
19929;SDS011;10127;47.780;9.606;2023-07-13T08:57:48;443.45;;;417.38;;
19929;SDS011;10127;47.780;9.606;2023-07-13T09:00:19;630.30;;;588.88;;
19929;SDS011;10127;47.780;9.606;2023-07-13T09:02:55;710.15;;;660.13;;
19929;SDS011;10127;47.780;9.606;2023-07-13T09:08:16;560.42;;;524.47;;
19929;SDS011;10127;47.780;9.606;2023-07-13T09:10:53;573.05;;;536.67;;
19929;SDS011;10127;47.780;9.606;2023-07-13T09:16:00;558.55;;;522.78;;
19929;SDS011;10127;47.780;9.606;2023-07-13T09:18:30;702.67;;;650.60;;
19929;SDS011;10127;47.780;9.606;2023-07-13T09:21:03;609.47;;;568.03;;
19929;SDS011;10127;47.780;9.606;2023-07-13T09:23:33;703.33;;;651.50;;
19929;SDS011;10127;47.780;9.606;2023-07-13T09:26:19;559.50;;;522.10;;
19929;SDS011;10127;47.780;9.606;2023-07-13T09:28:49;677.88;;;627.58;;
19929;SDS011;10127;47.780;9.606;2023-07-13T09:34:08;473.50;;;431.23;;
19929;SDS011;10127;47.780;9.606;2023-07-13T09:36:36;627.03;;;580.72;;
19929;SDS011;10127;47.780;9.606;2023-07-13T09:44:16;709.28;;;654.47;;
19929;SDS011;10127;47.780;9.606;2023-07-13T09:47:01;605.80;;;556.72;;
19929;SDS011;10127;47.780;9.606;2023-07-13T09:49:33;602.42;;;552.15;;
19929;SDS011;10127;47.780;9.606;2023-07-13T09:54:34;643.67;;;591.15;;
19929;SDS011;10127;47.780;9.606;2023-07-13T09:57:02;711.75;;;653.78;;
19929;SDS011;10127;47.780;9.606;2023-07-13T09:59:30;710.03;;;649.40;;
19929;SDS011;10127;47.780;9.606;2023-07-13T10:01:58;633.83;;;584.85;;
19929;SDS011;10127;47.780;9.606;2023-07-13T10:04:42;535.95;;;497.63;;
19929;SDS011;10127;47.780;9.606;2023-07-13T10:07:08;436.08;;;403.27;;
19929;SDS011;10127;47.780;9.606;2023-07-13T10:09:38;1593.70;;;836.45;;
19929;SDS011;10127;47.780;9.606;2023-07-13T10:12:14;1999.90;;;999.90;;
19929;SDS011;10127;47.780;9.606;2023-07-13T10:14:40;1999.90;;;999.90;;
19929;SDS011;10127;47.780;9.606;2023-07-13T10:17:08;1999.90;;;999.90;;
19929;SDS011;10127;47.780;9.606;2023-07-13T10:19:39;1999.90;;;999.90;;
19929;SDS011;10127;47.780;9.606;2023-07-13T10:24:47;1999.90;;;999.90;;
19929;SDS011;10127;47.780;9.606;2023-07-13T10:27:17;1999.90;;;999.90;;
19929;SDS011;10127;47.780;9.606;2023-07-13T10:30:39;1999.90;;;999.90;;
19929;SDS011;10127;47.780;9.606;2023-07-13T10:32:44;1999.90;;;999.90;;
19929;SDS011;10127;47.780;9.606;2023-07-13T10:35:12;806.92;;;739.67;;
19929;SDS011;10127;47.780;9.606;2023-07-13T10:37:45;710.60;;;655.58;;
19929;SDS011;10127;47.780;9.606;2023-07-13T10:40:19;575.40;;;531.88;;
19929;SDS011;10127;47.780;9.606;2023-07-13T10:42:51;1999.90;;;999.90;;
19929;SDS011;10127;47.780;9.606;2023-07-13T10:45:21;1999.90;;;999.90;;
19929;SDS011;10127;47.780;9.606;2023-07-13T10:47:48;1999.90;;;999.90;;
19929;SDS011;10127;47.780;9.606;2023-07-13T10:50:25;1999.90;;;999.90;;
19929;SDS011;10127;47.780;9.606;2023-07-13T10:53:01;874.70;;;790.78;;
19929;SDS011;10127;47.780;9.606;2023-07-13T11:00:53;856.45;;;779.25;;
19929;SDS011;10127;47.780;9.606;2023-07-13T11:03:27;847.03;;;764.30;;
19929;SDS011;10127;47.780;9.606;2023-07-13T11:06:16;743.13;;;668.40;;
19929;SDS011;10127;47.780;9.606;2023-07-13T11:11:33;1999.90;;;999.90;;
19929;SDS011;10127;47.780;9.606;2023-07-13T11:14:01;780.72;;;704.13;;
19929;SDS011;10127;47.780;9.606;2023-07-13T11:25:20;1999.90;;;999.90;;
19929;SDS011;10127;47.780;9.606;2023-07-13T11:27:51;1999.90;;;999.90;;
19929;SDS011;10127;47.780;9.606;2023-07-13T11:30:32;1999.90;;;999.90;;
19929;SDS011;10127;47.780;9.606;2023-07-13T11:33:03;1999.90;;;999.90;;
19929;SDS011;10127;47.780;9.606;2023-07-13T11:35:36;1999.90;;;999.90;;
19929;SDS011;10127;47.780;9.606;2023-07-13T11:38:22;1999.90;;;999.90;;
19929;SDS011;10127;47.780;9.606;2023-07-13T11:40:50;1999.90;;;999.90;;
19929;SDS011;10127;47.780;9.606;2023-07-13T11:43:18;1999.90;;;999.90;;
19929;SDS011;10127;47.780;9.606;2023-07-13T11:45:44;1999.90;;;999.90;;
19929;SDS011;10127;47.780;9.606;2023-07-13T11:50:53;1999.90;;;999.90;;
19929;SDS011;10127;47.780;9.606;2023-07-13T11:53:22;1999.90;;;999.90;;
19929;SDS011;10127;47.780;9.606;2023-07-13T11:55:50;1999.90;;;999.90;;
19929;SDS011;10127;47.780;9.606;2023-07-13T11:58:17;1999.90;;;999.90;;
19929;SDS011;10127;47.780;9.606;2023-07-13T12:00:50;1999.90;;;999.90;;
19929;SDS011;10127;47.780;9.606;2023-07-13T12:03:19;1999.90;;;999.90;;
19929;SDS011;10127;47.780;9.606;2023-07-13T12:06:02;1999.90;;;999.90;;
19929;SDS011;10127;47.780;9.606;2023-07-13T12:08:31;1999.90;;;999.90;;
19929;SDS011;10127;47.780;9.606;2023-07-13T12:11:05;1999.90;;;999.90;;
19929;SDS011;10127;47.780;9.606;2023-07-13T12:13:39;1999.90;;;999.90;;
19929;SDS011;10127;47.780;9.606;2023-07-13T12:16:47;1999.90;;;999.90;;
19929;SDS011;10127;47.780;9.606;2023-07-13T12:18:57;1999.90;;;999.90;;
19929;SDS011;10127;47.780;9.606;2023-07-13T12:21:30;1999.90;;;999.90;;
19929;SDS011;10127;47.780;9.606;2023-07-13T12:24:04;1999.90;;;999.90;;
19929;SDS011;10127;47.780;9.606;2023-07-13T12:26:38;1999.90;;;999.90;;
19929;SDS011;10127;47.780;9.606;2023-07-13T12:29:05;1999.90;;;999.90;;
19929;SDS011;10127;47.780;9.606;2023-07-13T12:31:33;1999.90;;;999.90;;
19929;SDS011;10127;47.780;9.606;2023-07-13T12:34:07;1999.90;;;999.90;;
19929;SDS011;10127;47.780;9.606;2023-07-13T12:36:37;1999.90;;;999.90;;
19929;SDS011;10127;47.780;9.606;2023-07-13T12:42:13;1999.90;;;999.90;;
19929;SDS011;10127;47.780;9.606;2023-07-13T12:44:49;1999.90;;;999.90;;
19929;SDS011;10127;47.780;9.606;2023-07-13T12:47:19;1999.90;;;999.90;;
19929;SDS011;10127;47.780;9.606;2023-07-13T12:49:49;1999.90;;;999.90;;
19929;SDS011;10127;47.780;9.606;2023-07-13T12:52:22;1999.90;;;999.90;;
19929;SDS011;10127;47.780;9.606;2023-07-13T12:54:59;1999.90;;;999.90;;
19929;SDS011;10127;47.780;9.606;2023-07-13T12:57:40;1999.90;;;999.90;;
19929;SDS011;10127;47.780;9.606;2023-07-13T13:00:29;1999.90;;;999.90;;
19929;SDS011;10127;47.780;9.606;2023-07-13T13:06:05;1999.90;;;999.90;;
19929;SDS011;10127;47.780;9.606;2023-07-13T13:08:46;1999.90;;;999.90;;
19929;SDS011;10127;47.780;9.606;2023-07-13T13:11:16;1999.90;;;999.90;;
19929;SDS011;10127;47.780;9.606;2023-07-13T13:13:42;1999.90;;;999.90;;
19929;SDS011;10127;47.780;9.606;2023-07-13T13:18:42;1999.90;;;999.90;;
19929;SDS011;10127;47.780;9.606;2023-07-13T13:21:08;1999.90;;;999.90;;
19929;SDS011;10127;47.780;9.606;2023-07-13T13:23:35;1999.90;;;999.90;;
19929;SDS011;10127;47.780;9.606;2023-07-13T13:26:00;1999.90;;;999.90;;
19929;SDS011;10127;47.780;9.606;2023-07-13T13:28:27;1999.90;;;999.90;;
19929;SDS011;10127;47.780;9.606;2023-07-13T13:30:54;1999.90;;;999.90;;
19929;SDS011;10127;47.780;9.606;2023-07-13T13:33:20;1999.90;;;999.90;;
19929;SDS011;10127;47.780;9.606;2023-07-13T13:35:47;1999.90;;;999.90;;
19929;SDS011;10127;47.780;9.606;2023-07-13T13:38:16;1999.90;;;999.90;;
19929;SDS011;10127;47.780;9.606;2023-07-13T13:40:43;1999.90;;;999.90;;
19929;SDS011;10127;47.780;9.606;2023-07-13T13:43:17;1999.90;;;999.90;;
19929;SDS011;10127;47.780;9.606;2023-07-13T13:45:51;1999.90;;;999.90;;
19929;SDS011;10127;47.780;9.606;2023-07-13T13:48:18;1999.90;;;999.90;;
19929;SDS011;10127;47.780;9.606;2023-07-13T13:50:46;1999.90;;;999.90;;
19929;SDS011;10127;47.780;9.606;2023-07-13T13:53:13;1999.90;;;999.90;;
19929;SDS011;10127;47.780;9.606;2023-07-13T13:55:39;1999.90;;;999.90;;
19929;SDS011;10127;47.780;9.606;2023-07-13T13:58:07;1999.90;;;999.90;;
19929;SDS011;10127;47.780;9.606;2023-07-13T14:00:34;1999.90;;;999.90;;
19929;SDS011;10127;47.780;9.606;2023-07-13T14:03:00;1999.90;;;999.90;;
19929;SDS011;10127;47.780;9.606;2023-07-13T14:05:26;1999.90;;;999.90;;
19929;SDS011;10127;47.780;9.606;2023-07-13T14:07:52;1999.90;;;999.90;;
19929;SDS011;10127;47.780;9.606;2023-07-13T14:10:19;1999.90;;;999.90;;
19929;SDS011;10127;47.780;9.606;2023-07-13T14:12:52;1999.90;;;999.90;;
19929;SDS011;10127;47.780;9.606;2023-07-13T14:17:47;1999.90;;;999.90;;
19929;SDS011;10127;47.780;9.606;2023-07-13T14:20:16;1999.90;;;999.90;;
19929;SDS011;10127;47.780;9.606;2023-07-13T14:22:52;1999.90;;;999.90;;
19929;SDS011;10127;47.780;9.606;2023-07-13T14:25:18;1999.90;;;999.90;;
19929;SDS011;10127;47.780;9.606;2023-07-13T14:27:45;1999.90;;;999.90;;
19929;SDS011;10127;47.780;9.606;2023-07-13T14:32:40;1999.90;;;999.90;;
19929;SDS011;10127;47.780;9.606;2023-07-13T14:35:14;1999.90;;;999.90;;
19929;SDS011;10127;47.780;9.606;2023-07-13T14:37:41;1999.90;;;999.90;;
19929;SDS011;10127;47.780;9.606;2023-07-13T14:40:17;1999.90;;;999.90;;
19929;SDS011;10127;47.780;9.606;2023-07-13T14:42:49;1999.90;;;999.90;;
19929;SDS011;10127;47.780;9.606;2023-07-13T14:45:15;1999.90;;;999.90;;
19929;SDS011;10127;47.780;9.606;2023-07-13T14:47:43;1999.90;;;999.90;;
19929;SDS011;10127;47.780;9.606;2023-07-13T14:50:13;1999.90;;;999.90;;
19929;SDS011;10127;47.780;9.606;2023-07-13T14:52:41;1999.90;;;999.90;;
19929;SDS011;10127;47.780;9.606;2023-07-13T14:55:10;1999.90;;;999.90;;
19929;SDS011;10127;47.780;9.606;2023-07-13T14:57:42;1999.90;;;999.90;;
19929;SDS011;10127;47.780;9.606;2023-07-13T15:00:17;1999.90;;;999.90;;
19929;SDS011;10127;47.780;9.606;2023-07-13T15:02:46;1999.90;;;999.90;;
19929;SDS011;10127;47.780;9.606;2023-07-13T15:05:19;1999.90;;;999.90;;
19929;SDS011;10127;47.780;9.606;2023-07-13T15:07:48;1999.90;;;999.90;;